sensor_id;sensor_type;location;lat;lon;timestamp;pressure;altitude;pressure_sealevel;temperature
18782;BMP180;9519;51.890;8.970;2023-04-03T00:02:10;99960.00;;;1.50
18782;BMP180;9519;51.890;8.970;2023-04-03T00:07:12;100173.00;;;1.50
18782;BMP180;9519;51.890;8.970;2023-04-03T00:12:15;99971.00;;;1.40
18782;BMP180;9519;51.890;8.970;2023-04-03T00:17:18;99916.00;;;1.30
18782;BMP180;9519;51.890;8.970;2023-04-03T00:22:21;100145.00;;;1.20
18782;BMP180;9519;51.890;8.970;2023-04-03T00:27:23;99918.00;;;1.10
18782;BMP180;9519;51.890;8.970;2023-04-03T00:32:26;99896.00;;;1.10
18782;BMP180;9519;51.890;8.970;2023-04-03T00:37:28;99878.00;;;1.00
18782;BMP180;9519;51.890;8.970;2023-04-03T00:42:31;99880.00;;;1.00
18782;BMP180;9519;51.890;8.970;2023-04-03T00:47:34;99788.00;;;0.90
18782;BMP180;9519;51.890;8.970;2023-04-03T00:52:38;99930.00;;;0.80
18782;BMP180;9519;51.890;8.970;2023-04-03T00:57:41;100066.00;;;0.80
18782;BMP180;9519;51.890;8.970;2023-04-03T01:02:44;99792.00;;;0.70
18782;BMP180;9519;51.890;8.970;2023-04-03T01:07:47;99941.00;;;0.70
18782;BMP180;9519;51.890;8.970;2023-04-03T01:12:50;100080.00;;;0.70
18782;BMP180;9519;51.890;8.970;2023-04-03T01:17:55;99846.00;;;0.60
18782;BMP180;9519;51.890;8.970;2023-04-03T01:23:10;99839.00;;;0.60
18782;BMP180;9519;51.890;8.970;2023-04-03T01:28:17;99898.00;;;0.50
18782;BMP180;9519;51.890;8.970;2023-04-03T01:33:21;99751.00;;;0.50
18782;BMP180;9519;51.890;8.970;2023-04-03T01:38:23;99758.00;;;0.40
18782;BMP180;9519;51.890;8.970;2023-04-03T01:43:26;99733.00;;;0.40
18782;BMP180;9519;51.890;8.970;2023-04-03T01:48:29;99639.00;;;0.30
18782;BMP180;9519;51.890;8.970;2023-04-03T01:53:31;99561.00;;;0.30
18782;BMP180;9519;51.890;8.970;2023-04-03T01:58:34;99613.00;;;0.20
18782;BMP180;9519;51.890;8.970;2023-04-03T02:03:37;99467.00;;;0.10
18782;BMP180;9519;51.890;8.970;2023-04-03T02:08:40;99884.00;;;0.10
18782;BMP180;9519;51.890;8.970;2023-04-03T02:13:42;99515.00;;;0.00
18782;BMP180;9519;51.890;8.970;2023-04-03T02:18:45;99495.00;;;0.00
18782;BMP180;9519;51.890;8.970;2023-04-03T02:23:48;99478.00;;;-0.10
18782;BMP180;9519;51.890;8.970;2023-04-03T02:28:50;99797.00;;;-0.10
18782;BMP180;9519;51.890;8.970;2023-04-03T02:33:54;99467.00;;;-0.20
18782;BMP180;9519;51.890;8.970;2023-04-03T02:38:56;99488.00;;;-0.20
18782;BMP180;9519;51.890;8.970;2023-04-03T02:43:58;99535.00;;;-0.30
18782;BMP180;9519;51.890;8.970;2023-04-03T02:49:02;99633.00;;;-0.30
18782;BMP180;9519;51.890;8.970;2023-04-03T02:54:04;99834.00;;;-0.30
18782;BMP180;9519;51.890;8.970;2023-04-03T02:59:07;99834.00;;;-0.40
18782;BMP180;9519;51.890;8.970;2023-04-03T03:04:10;99465.00;;;-0.40
18782;BMP180;9519;51.890;8.970;2023-04-03T03:09:13;99320.00;;;-0.50
18782;BMP180;9519;51.890;8.970;2023-04-03T03:14:15;99753.00;;;-0.60
18782;BMP180;9519;51.890;8.970;2023-04-03T03:19:18;99408.00;;;-0.60
18782;BMP180;9519;51.890;8.970;2023-04-03T03:24:21;99794.00;;;-0.70
18782;BMP180;9519;51.890;8.970;2023-04-03T03:29:23;99802.00;;;-0.70
18782;BMP180;9519;51.890;8.970;2023-04-03T03:34:26;99536.00;;;-0.70
18782;BMP180;9519;51.890;8.970;2023-04-03T03:39:29;99924.00;;;-0.70
18782;BMP180;9519;51.890;8.970;2023-04-03T03:44:31;99898.00;;;-0.80
18782;BMP180;9519;51.890;8.970;2023-04-03T03:49:34;99546.00;;;-0.80
18782;BMP180;9519;51.890;8.970;2023-04-03T03:54:37;99527.00;;;-0.80
18782;BMP180;9519;51.890;8.970;2023-04-03T03:59:40;99901.00;;;-0.90
18782;BMP180;9519;51.890;8.970;2023-04-03T04:04:43;99509.00;;;-0.90
18782;BMP180;9519;51.890;8.970;2023-04-03T04:09:46;99839.00;;;-0.90
18782;BMP180;9519;51.890;8.970;2023-04-03T04:14:48;99469.00;;;-1.00
18782;BMP180;9519;51.890;8.970;2023-04-03T04:19:52;99414.00;;;-1.00
18782;BMP180;9519;51.890;8.970;2023-04-03T04:24:54;99786.00;;;-1.00
18782;BMP180;9519;51.890;8.970;2023-04-03T04:29:56;99482.00;;;-1.00
18782;BMP180;9519;51.890;8.970;2023-04-03T04:35:00;99462.00;;;-1.00
18782;BMP180;9519;51.890;8.970;2023-04-03T04:40:02;99858.00;;;-1.10
18782;BMP180;9519;51.890;8.970;2023-04-03T04:45:05;99572.00;;;-1.10
18782;BMP180;9519;51.890;8.970;2023-04-03T04:50:10;99643.00;;;-1.10
18782;BMP180;9519;51.890;8.970;2023-04-03T04:55:13;99835.00;;;-1.20
18782;BMP180;9519;51.890;8.970;2023-04-03T05:00:16;99639.00;;;-1.20
18782;BMP180;9519;51.890;8.970;2023-04-03T05:05:20;99452.00;;;-1.20
18782;BMP180;9519;51.890;8.970;2023-04-03T05:10:23;99867.00;;;-1.20
18782;BMP180;9519;51.890;8.970;2023-04-03T05:15:26;99507.00;;;-1.20
18782;BMP180;9519;51.890;8.970;2023-04-03T05:20:29;99520.00;;;-1.20
18782;BMP180;9519;51.890;8.970;2023-04-03T05:25:31;99635.00;;;-1.20
18782;BMP180;9519;51.890;8.970;2023-04-03T05:30:33;99560.00;;;-1.20
18782;BMP180;9519;51.890;8.970;2023-04-03T05:35:37;99502.00;;;-1.20
18782;BMP180;9519;51.890;8.970;2023-04-03T05:40:41;99556.00;;;-1.20
18782;BMP180;9519;51.890;8.970;2023-04-03T05:45:44;99916.00;;;-1.10
18782;BMP180;9519;51.890;8.970;2023-04-03T05:50:48;99541.00;;;-1.10
18782;BMP180;9519;51.890;8.970;2023-04-03T05:55:50;99488.00;;;-1.10
18782;BMP180;9519;51.890;8.970;2023-04-03T06:00:52;99923.00;;;-1.00
18782;BMP180;9519;51.890;8.970;2023-04-03T06:05:55;99554.00;;;-1.00
18782;BMP180;9519;51.890;8.970;2023-04-03T06:10:58;99643.00;;;-1.00
18782;BMP180;9519;51.890;8.970;2023-04-03T06:16:00;99617.00;;;-0.90
18782;BMP180;9519;51.890;8.970;2023-04-03T06:21:04;99592.00;;;-0.80
18782;BMP180;9519;51.890;8.970;2023-04-03T06:26:08;100006.00;;;-0.80
18782;BMP180;9519;51.890;8.970;2023-04-03T06:31:11;99694.00;;;-0.70
18782;BMP180;9519;51.890;8.970;2023-04-03T06:36:15;99782.00;;;-0.50
18782;BMP180;9519;51.890;8.970;2023-04-03T06:41:20;100081.00;;;-0.50
18782;BMP180;9519;51.890;8.970;2023-04-03T06:46:24;99895.00;;;-0.40
18782;BMP180;9519;51.890;8.970;2023-04-03T06:51:29;99847.00;;;-0.20
18782;BMP180;9519;51.890;8.970;2023-04-03T06:56:32;99936.00;;;-0.10
18782;BMP180;9519;51.890;8.970;2023-04-03T07:01:34;99880.00;;;0.00
18782;BMP180;9519;51.890;8.970;2023-04-03T07:06:38;99883.00;;;0.10
18782;BMP180;9519;51.890;8.970;2023-04-03T07:11:40;99931.00;;;0.30
18782;BMP180;9519;51.890;8.970;2023-04-03T07:16:42;99948.00;;;0.30
18782;BMP180;9519;51.890;8.970;2023-04-03T07:21:45;99978.00;;;0.50
18782;BMP180;9519;51.890;8.970;2023-04-03T07:26:49;99888.00;;;0.70
18782;BMP180;9519;51.890;8.970;2023-04-03T07:31:52;100046.00;;;0.80
18782;BMP180;9519;51.890;8.970;2023-04-03T07:36:55;100031.00;;;1.00
18782;BMP180;9519;51.890;8.970;2023-04-03T07:41:57;100038.00;;;1.20
18782;BMP180;9519;51.890;8.970;2023-04-03T07:46:59;100059.00;;;1.30
18782;BMP180;9519;51.890;8.970;2023-04-03T07:52:03;100066.00;;;1.40
18782;BMP180;9519;51.890;8.970;2023-04-03T07:57:06;100068.00;;;1.50
18782;BMP180;9519;51.890;8.970;2023-04-03T08:02:09;100106.00;;;1.50
18782;BMP180;9519;51.890;8.970;2023-04-03T08:07:13;100031.00;;;1.60
18782;BMP180;9519;51.890;8.970;2023-04-03T08:12:15;100042.00;;;1.60
18782;BMP180;9519;51.890;8.970;2023-04-03T08:17:18;100300.00;;;1.70
18782;BMP180;9519;51.890;8.970;2023-04-03T08:22:21;100102.00;;;1.80
18782;BMP180;9519;51.890;8.970;2023-04-03T08:27:24;100331.00;;;1.80
18782;BMP180;9519;51.890;8.970;2023-04-03T08:32:27;100101.00;;;2.00
18782;BMP180;9519;51.890;8.970;2023-04-03T08:37:31;100166.00;;;2.10
18782;BMP180;9519;51.890;8.970;2023-04-03T08:42:57;100193.00;;;2.20
18782;BMP180;9519;51.890;8.970;2023-04-03T08:48:12;100204.00;;;2.40
18782;BMP180;9519;51.890;8.970;2023-04-03T08:53:21;100234.00;;;2.60
18782;BMP180;9519;51.890;8.970;2023-04-03T08:58:26;100282.00;;;2.70
18782;BMP180;9519;51.890;8.970;2023-04-03T09:03:32;100216.00;;;2.80
18782;BMP180;9519;51.890;8.970;2023-04-03T09:08:43;100304.00;;;2.90
18782;BMP180;9519;51.890;8.970;2023-04-03T09:13:54;100317.00;;;3.10
18782;BMP180;9519;51.890;8.970;2023-04-03T09:19:12;100330.00;;;3.20
18782;BMP180;9519;51.890;8.970;2023-04-03T09:24:18;100358.00;;;3.40
18782;BMP180;9519;51.890;8.970;2023-04-03T09:29:24;100344.00;;;3.60
18782;BMP180;9519;51.890;8.970;2023-04-03T09:34:31;100404.00;;;3.80
18782;BMP180;9519;51.890;8.970;2023-04-03T09:39:50;100408.00;;;4.00
18782;BMP180;9519;51.890;8.970;2023-04-03T09:44:56;100399.00;;;4.10
18782;BMP180;9519;51.890;8.970;2023-04-03T09:50:19;100421.00;;;4.20
18782;BMP180;9519;51.890;8.970;2023-04-03T09:55:25;100382.00;;;4.20
18782;BMP180;9519;51.890;8.970;2023-04-03T10:00:35;100373.00;;;4.30
18782;BMP180;9519;51.890;8.970;2023-04-03T10:05:40;100418.00;;;4.50
18782;BMP180;9519;51.890;8.970;2023-04-03T10:10:46;100416.00;;;4.60
18782;BMP180;9519;51.890;8.970;2023-04-03T10:15:54;100411.00;;;4.80
18782;BMP180;9519;51.890;8.970;2023-04-03T10:21:04;100399.00;;;4.80
18782;BMP180;9519;51.890;8.970;2023-04-03T10:26:17;100395.00;;;4.70
18782;BMP180;9519;51.890;8.970;2023-04-03T10:31:33;100399.00;;;4.80
18782;BMP180;9519;51.890;8.970;2023-04-03T10:36:43;100405.00;;;4.80
18782;BMP180;9519;51.890;8.970;2023-04-03T10:42:00;100407.00;;;5.00
18782;BMP180;9519;51.890;8.970;2023-04-03T10:47:14;100403.00;;;5.20
18782;BMP180;9519;51.890;8.970;2023-04-03T10:52:23;100476.00;;;5.50
18782;BMP180;9519;51.890;8.970;2023-04-03T10:57:29;100523.00;;;5.70
18782;BMP180;9519;51.890;8.970;2023-04-03T11:02:48;100502.00;;;5.50
18782;BMP180;9519;51.890;8.970;2023-04-03T11:07:53;100436.00;;;5.20
18782;BMP180;9519;51.890;8.970;2023-04-03T11:13:08;100426.00;;;5.00
18782;BMP180;9519;51.890;8.970;2023-04-03T11:18:20;100435.00;;;4.90
18782;BMP180;9519;51.890;8.970;2023-04-03T11:23:25;100455.00;;;4.80
18782;BMP180;9519;51.890;8.970;2023-04-03T11:28:29;100377.00;;;4.80
18782;BMP180;9519;51.890;8.970;2023-04-03T11:33:45;100371.00;;;4.70
18782;BMP180;9519;51.890;8.970;2023-04-03T11:38:55;100420.00;;;4.60
18782;BMP180;9519;51.890;8.970;2023-04-03T11:44:03;100446.00;;;4.80
18782;BMP180;9519;51.890;8.970;2023-04-03T11:49:56;100542.00;;;5.20
18782;BMP180;9519;51.890;8.970;2023-04-03T11:55:00;100471.00;;;5.50
18782;BMP180;9519;51.890;8.970;2023-04-03T12:00:51;100551.00;;;5.60
18782;BMP180;9519;51.890;8.970;2023-04-03T12:05:56;100532.00;;;5.90
18782;BMP180;9519;51.890;8.970;2023-04-03T12:11:19;100487.00;;;6.10
18782;BMP180;9519;51.890;8.970;2023-04-03T12:16:30;100520.00;;;6.10
18782;BMP180;9519;51.890;8.970;2023-04-03T12:22:07;100482.00;;;6.10
18782;BMP180;9519;51.890;8.970;2023-04-03T12:27:33;100502.00;;;6.20
18782;BMP180;9519;51.890;8.970;2023-04-03T12:38:40;100494.00;;;6.30
18782;BMP180;9519;51.890;8.970;2023-04-03T12:44:01;100494.00;;;6.30
18782;BMP180;9519;51.890;8.970;2023-04-03T12:49:30;100501.00;;;6.50
18782;BMP180;9519;51.890;8.970;2023-04-03T12:54:38;100512.00;;;6.70
18782;BMP180;9519;51.890;8.970;2023-04-03T12:59:42;100503.00;;;6.70
18782;BMP180;9519;51.890;8.970;2023-04-03T13:04:49;100483.00;;;6.80
18782;BMP180;9519;51.890;8.970;2023-04-03T13:10:02;100473.00;;;6.70
18782;BMP180;9519;51.890;8.970;2023-04-03T13:15:15;100475.00;;;6.50
18782;BMP180;9519;51.890;8.970;2023-04-03T13:20:24;100490.00;;;6.60
18782;BMP180;9519;51.890;8.970;2023-04-03T13:25:30;100478.00;;;6.70
18782;BMP180;9519;51.890;8.970;2023-04-03T13:30:36;100443.00;;;6.60
18782;BMP180;9519;51.890;8.970;2023-04-03T13:35:41;100472.00;;;6.50
18782;BMP180;9519;51.890;8.970;2023-04-03T13:40:48;100472.00;;;6.50
18782;BMP180;9519;51.890;8.970;2023-04-03T13:45:58;100480.00;;;6.80
18782;BMP180;9519;51.890;8.970;2023-04-03T13:51:12;100488.00;;;7.10
18782;BMP180;9519;51.890;8.970;2023-04-03T13:56:26;100504.00;;;7.50
18782;BMP180;9519;51.890;8.970;2023-04-03T14:01:43;100499.00;;;7.90
18782;BMP180;9519;51.890;8.970;2023-04-03T14:06:48;100502.00;;;8.30
18782;BMP180;9519;51.890;8.970;2023-04-03T14:11:54;100496.00;;;8.20
18782;BMP180;9519;51.890;8.970;2023-04-03T14:17:01;100493.00;;;8.10
18782;BMP180;9519;51.890;8.970;2023-04-03T14:22:15;100493.00;;;8.50
18782;BMP180;9519;51.890;8.970;2023-04-03T14:27:20;100497.00;;;8.50
18782;BMP180;9519;51.890;8.970;2023-04-03T14:32:25;100494.00;;;8.20
18782;BMP180;9519;51.890;8.970;2023-04-03T14:37:30;100481.00;;;8.10
18782;BMP180;9519;51.890;8.970;2023-04-03T14:42:36;100476.00;;;8.20
18782;BMP180;9519;51.890;8.970;2023-04-03T14:47:44;100489.00;;;8.90
18782;BMP180;9519;51.890;8.970;2023-04-03T14:52:52;100484.00;;;10.00
18782;BMP180;9519;51.890;8.970;2023-04-03T14:57:55;100487.00;;;10.80
18782;BMP180;9519;51.890;8.970;2023-04-03T15:02:57;100489.00;;;11.60
18782;BMP180;9519;51.890;8.970;2023-04-03T15:08:00;100476.00;;;12.30
18782;BMP180;9519;51.890;8.970;2023-04-03T15:13:03;100467.00;;;11.70
18782;BMP180;9519;51.890;8.970;2023-04-03T15:18:05;100466.00;;;10.60
18782;BMP180;9519;51.890;8.970;2023-04-03T15:23:11;100469.00;;;10.50
18782;BMP180;9519;51.890;8.970;2023-04-03T15:28:20;100465.00;;;10.50
18782;BMP180;9519;51.890;8.970;2023-04-03T15:33:24;100474.00;;;10.70
18782;BMP180;9519;51.890;8.970;2023-04-03T15:38:27;100463.00;;;11.00
18782;BMP180;9519;51.890;8.970;2023-04-03T15:43:30;100454.00;;;10.90
18782;BMP180;9519;51.890;8.970;2023-04-03T15:48:35;100452.00;;;9.90
18782;BMP180;9519;51.890;8.970;2023-04-03T15:53:39;100446.00;;;9.30
18782;BMP180;9519;51.890;8.970;2023-04-03T15:58:41;100430.00;;;9.20
18782;BMP180;9519;51.890;8.970;2023-04-03T16:03:44;100436.00;;;9.20
18782;BMP180;9519;51.890;8.970;2023-04-03T16:08:49;100441.00;;;9.10
18782;BMP180;9519;51.890;8.970;2023-04-03T16:13:51;100445.00;;;8.90
18782;BMP180;9519;51.890;8.970;2023-04-03T16:18:54;100431.00;;;8.50
18782;BMP180;9519;51.890;8.970;2023-04-03T16:23:59;100423.00;;;8.10
18782;BMP180;9519;51.890;8.970;2023-04-03T16:29:02;100423.00;;;7.70
18782;BMP180;9519;51.890;8.970;2023-04-03T16:34:04;100416.00;;;7.30
18782;BMP180;9519;51.890;8.970;2023-04-03T16:39:07;100402.00;;;6.90
18782;BMP180;9519;51.890;8.970;2023-04-03T16:44:10;100368.00;;;6.60
18782;BMP180;9519;51.890;8.970;2023-04-03T16:49:12;100382.00;;;6.40
18782;BMP180;9519;51.890;8.970;2023-04-03T16:54:16;100374.00;;;6.30
18782;BMP180;9519;51.890;8.970;2023-04-03T16:59:18;100365.00;;;6.20
18782;BMP180;9519;51.890;8.970;2023-04-03T17:04:20;100400.00;;;6.20
18782;BMP180;9519;51.890;8.970;2023-04-03T17:09:23;100380.00;;;6.20
18782;BMP180;9519;51.890;8.970;2023-04-03T17:14:26;100363.00;;;6.00
18782;BMP180;9519;51.890;8.970;2023-04-03T17:19:28;100322.00;;;5.90
18782;BMP180;9519;51.890;8.970;2023-04-03T17:24:35;100369.00;;;5.70
18782;BMP180;9519;51.890;8.970;2023-04-03T17:29:37;100341.00;;;5.60
18782;BMP180;9519;51.890;8.970;2023-04-03T17:34:39;100342.00;;;5.50
18782;BMP180;9519;51.890;8.970;2023-04-03T17:39:43;100325.00;;;5.40
18782;BMP180;9519;51.890;8.970;2023-04-03T17:44:46;100342.00;;;5.20
18782;BMP180;9519;51.890;8.970;2023-04-03T17:49:48;100334.00;;;5.10
18782;BMP180;9519;51.890;8.970;2023-04-03T17:54:52;100326.00;;;5.00
18782;BMP180;9519;51.890;8.970;2023-04-03T17:59:54;100314.00;;;4.80
18782;BMP180;9519;51.890;8.970;2023-04-03T18:04:56;100297.00;;;4.70
18782;BMP180;9519;51.890;8.970;2023-04-03T18:10:04;100335.00;;;4.60
18782;BMP180;9519;51.890;8.970;2023-04-03T18:15:10;100324.00;;;4.50
18782;BMP180;9519;51.890;8.970;2023-04-03T18:20:13;100284.00;;;4.40
18782;BMP180;9519;51.890;8.970;2023-04-03T18:25:18;100313.00;;;4.30
18782;BMP180;9519;51.890;8.970;2023-04-03T18:30:22;100259.00;;;4.20
18782;BMP180;9519;51.890;8.970;2023-04-03T18:35:26;100245.00;;;4.10
18782;BMP180;9519;51.890;8.970;2023-04-03T18:40:30;100333.00;;;4.00
18782;BMP180;9519;51.890;8.970;2023-04-03T18:45:33;100286.00;;;3.90
18782;BMP180;9519;51.890;8.970;2023-04-03T18:50:35;100285.00;;;3.80
18782;BMP180;9519;51.890;8.970;2023-04-03T18:55:39;100258.00;;;3.70
18782;BMP180;9519;51.890;8.970;2023-04-03T19:00:42;100262.00;;;3.70
18782;BMP180;9519;51.890;8.970;2023-04-03T19:05:44;100282.00;;;3.60
18782;BMP180;9519;51.890;8.970;2023-04-03T19:10:48;100244.00;;;3.50
18782;BMP180;9519;51.890;8.970;2023-04-03T19:15:50;100247.00;;;3.40
18782;BMP180;9519;51.890;8.970;2023-04-03T19:20:55;100260.00;;;3.30
18782;BMP180;9519;51.890;8.970;2023-04-03T19:26:00;100238.00;;;3.20
18782;BMP180;9519;51.890;8.970;2023-04-03T19:31:10;100259.00;;;3.10
18782;BMP180;9519;51.890;8.970;2023-04-03T19:36:12;100212.00;;;3.10
18782;BMP180;9519;51.890;8.970;2023-04-03T19:41:20;100189.00;;;3.00
18782;BMP180;9519;51.890;8.970;2023-04-03T19:46:27;100200.00;;;2.90
18782;BMP180;9519;51.890;8.970;2023-04-03T19:51:29;100187.00;;;2.90
18782;BMP180;9519;51.890;8.970;2023-04-03T19:56:33;100209.00;;;2.80
18782;BMP180;9519;51.890;8.970;2023-04-03T20:01:35;100174.00;;;2.70
18782;BMP180;9519;51.890;8.970;2023-04-03T20:06:38;100153.00;;;2.60
18782;BMP180;9519;51.890;8.970;2023-04-03T20:11:42;100168.00;;;2.50
18782;BMP180;9519;51.890;8.970;2023-04-03T20:16:47;100146.00;;;2.50
18782;BMP180;9519;51.890;8.970;2023-04-03T20:21:49;100129.00;;;2.40
18782;BMP180;9519;51.890;8.970;2023-04-03T20:26:53;100147.00;;;2.40
18782;BMP180;9519;51.890;8.970;2023-04-03T20:31:56;100117.00;;;2.20
18782;BMP180;9519;51.890;8.970;2023-04-03T20:37:01;100138.00;;;2.20
18782;BMP180;9519;51.890;8.970;2023-04-03T20:42:04;100105.00;;;2.10
18782;BMP180;9519;51.890;8.970;2023-04-03T20:47:07;100119.00;;;2.00
18782;BMP180;9519;51.890;8.970;2023-04-03T20:52:09;100107.00;;;1.90
18782;BMP180;9519;51.890;8.970;2023-04-03T20:57:13;100091.00;;;1.80
18782;BMP180;9519;51.890;8.970;2023-04-03T21:02:15;100070.00;;;1.70
18782;BMP180;9519;51.890;8.970;2023-04-03T21:19:20;100016.00;;;1.40
18782;BMP180;9519;51.890;8.970;2023-04-03T21:24:23;99990.00;;;1.30
18782;BMP180;9519;51.890;8.970;2023-04-03T21:29:25;99968.00;;;1.30
18782;BMP180;9519;51.890;8.970;2023-04-03T21:34:29;100041.00;;;1.10
18782;BMP180;9519;51.890;8.970;2023-04-03T21:39:32;99956.00;;;1.10
18782;BMP180;9519;51.890;8.970;2023-04-03T21:44:34;99955.00;;;1.00
18782;BMP180;9519;51.890;8.970;2023-04-03T21:49:38;99949.00;;;0.90
18782;BMP180;9519;51.890;8.970;2023-04-03T21:54:41;100128.00;;;0.90
18782;BMP180;9519;51.890;8.970;2023-04-03T21:59:43;99899.00;;;0.80
18782;BMP180;9519;51.890;8.970;2023-04-03T22:04:47;99845.00;;;0.70
18782;BMP180;9519;51.890;8.970;2023-04-03T22:09:49;100099.00;;;0.60
18782;BMP180;9519;51.890;8.970;2023-04-03T22:14:51;99867.00;;;0.60
18782;BMP180;9519;51.890;8.970;2023-04-03T22:19:55;99784.00;;;0.50
18782;BMP180;9519;51.890;8.970;2023-04-03T22:24:57;100057.00;;;0.50
18782;BMP180;9519;51.890;8.970;2023-04-03T22:30:01;99807.00;;;0.40
18782;BMP180;9519;51.890;8.970;2023-04-03T22:35:07;99898.00;;;0.30
18782;BMP180;9519;51.890;8.970;2023-04-03T22:40:10;99883.00;;;0.20
18782;BMP180;9519;51.890;8.970;2023-04-03T22:45:13;100056.00;;;0.20
18782;BMP180;9519;51.890;8.970;2023-04-03T22:50:17;99780.00;;;0.20
18782;BMP180;9519;51.890;8.970;2023-04-03T22:55:19;100038.00;;;0.10
18782;BMP180;9519;51.890;8.970;2023-04-03T23:00:24;99724.00;;;0.00
18782;BMP180;9519;51.890;8.970;2023-04-03T23:05:28;99737.00;;;0.00
18782;BMP180;9519;51.890;8.970;2023-04-03T23:10:31;99758.00;;;-0.10
18782;BMP180;9519;51.890;8.970;2023-04-03T23:15:33;99705.00;;;-0.10
18782;BMP180;9519;51.890;8.970;2023-04-03T23:20:36;99706.00;;;-0.20
18782;BMP180;9519;51.890;8.970;2023-04-03T23:25:38;99681.00;;;-0.20
18782;BMP180;9519;51.890;8.970;2023-04-03T23:30:40;99967.00;;;-0.20
18782;BMP180;9519;51.890;8.970;2023-04-03T23:35:45;99763.00;;;-0.30
18782;BMP180;9519;51.890;8.970;2023-04-03T23:40:48;99965.00;;;-0.40
18782;BMP180;9519;51.890;8.970;2023-04-03T23:45:51;99626.00;;;-0.40
18782;BMP180;9519;51.890;8.970;2023-04-03T23:50:54;99622.00;;;-0.50
18782;BMP180;9519;51.890;8.970;2023-04-03T23:55:56;99945.00;;;-0.50
